createdAt,value
2023-02-18T00:00:18.660Z,1.50
2023-02-18T00:02:49.158Z,1.60
2023-02-18T00:05:19.545Z,1.60
2023-02-18T00:07:48.197Z,1.73
2023-02-18T00:10:17.987Z,1.80
2023-02-18T00:12:47.974Z,1.67
2023-02-18T00:15:16.626Z,1.67
2023-02-18T00:17:45.090Z,1.70
2023-02-18T00:20:14.377Z,1.30
2023-02-18T00:22:42.903Z,1.50
2023-02-18T00:25:11.615Z,1.70
2023-02-18T00:27:40.178Z,1.60
2023-02-18T00:30:11.624Z,1.70
2023-02-18T00:32:40.303Z,1.50
2023-02-18T00:35:09.932Z,1.60
2023-02-18T00:37:38.539Z,1.50
2023-02-18T00:40:09.368Z,1.63
2023-02-18T00:42:37.940Z,2.00
2023-02-18T00:45:07.482Z,1.30
2023-02-18T00:47:37.413Z,1.40
2023-02-18T00:50:07.339Z,2.20
2023-02-18T00:52:35.928Z,2.10
2023-02-18T00:55:04.682Z,1.70
2023-02-18T00:57:34.688Z,1.90
2023-02-18T01:00:03.838Z,2.10
2023-02-18T01:02:32.456Z,1.33
2023-02-18T01:05:02.961Z,1.43
2023-02-18T01:07:31.583Z,1.80
2023-02-18T01:10:01.518Z,1.80
2023-02-18T01:12:30.282Z,1.80
2023-02-18T01:14:59.015Z,1.57
2023-02-18T01:17:27.662Z,1.70
2023-02-18T01:19:56.362Z,1.60
2023-02-18T01:22:26.709Z,1.57
2023-02-18T01:24:55.226Z,1.73
2023-02-18T01:27:23.806Z,2.07
2023-02-18T01:29:52.431Z,1.83
2023-02-18T01:32:20.961Z,1.50
2023-02-18T01:34:50.862Z,1.27
2023-02-18T01:37:19.434Z,1.90
2023-02-18T01:39:49.552Z,1.50
2023-02-18T01:42:22.277Z,1.67
2023-02-18T01:44:53.098Z,1.60
2023-02-18T01:47:22.515Z,1.47
2023-02-18T01:49:55.248Z,1.30
2023-02-18T01:52:28.011Z,1.57
2023-02-18T01:54:59.084Z,1.47
2023-02-18T01:57:36.519Z,1.30
2023-02-18T02:00:13.206Z,1.40
2023-02-18T02:02:48.010Z,1.60
2023-02-18T02:05:18.023Z,1.23
2023-02-18T02:07:49.855Z,1.60
2023-02-18T02:10:22.805Z,1.77
2023-02-18T02:13:07.549Z,1.70
2023-02-18T02:15:45.540Z,1.37
2023-02-18T02:18:42.947Z,1.30
2023-02-18T02:21:52.801Z,1.50
2023-02-18T02:25:05.261Z,1.40
2023-02-18T02:28:35.946Z,1.93
2023-02-18T02:31:59.744Z,1.70
2023-02-18T02:34:56.365Z,2.00
2023-02-18T02:37:37.158Z,1.63
2023-02-18T02:40:22.006Z,1.47
2023-02-18T02:43:06.713Z,1.40
2023-02-18T02:45:52.333Z,1.97
2023-02-18T02:48:34.168Z,1.83
2023-02-18T02:51:14.042Z,1.50
2023-02-18T02:53:44.676Z,1.67
2023-02-18T02:56:17.555Z,2.20
2023-02-18T02:58:54.547Z,1.80
2023-02-18T03:01:42.489Z,1.50
2023-02-18T03:04:38.799Z,1.80
2023-02-18T03:07:54.273Z,1.47
2023-02-18T03:10:44.796Z,1.73
2023-02-18T03:13:30.298Z,1.70
2023-02-18T03:16:14.503Z,1.40
2023-02-18T03:18:52.892Z,1.83
2023-02-18T03:21:29.021Z,1.77
2023-02-18T03:24:07.613Z,1.57
2023-02-18T03:26:43.154Z,1.80
2023-02-18T03:29:15.426Z,1.73
2023-02-18T03:31:50.348Z,1.70
2023-02-18T03:34:27.558Z,1.70
2023-02-18T03:36:58.852Z,1.63
2023-02-18T03:39:31.426Z,1.50
2023-02-18T03:42:00.206Z,1.67
2023-02-18T03:44:28.968Z,1.90
2023-02-18T03:46:57.954Z,1.87
2023-02-18T03:49:26.753Z,1.90
2023-02-18T03:51:55.364Z,1.67
2023-02-18T03:54:23.932Z,1.77
2023-02-18T03:56:53.855Z,2.00
2023-02-18T03:59:22.405Z,1.83
2023-02-18T04:01:50.939Z,2.03
2023-02-18T04:04:19.474Z,1.60
2023-02-18T04:06:48.098Z,1.50
2023-02-18T04:09:16.819Z,1.60
2023-02-18T04:11:45.566Z,1.43
2023-02-18T04:14:16.648Z,1.77
2023-02-18T04:16:45.303Z,1.53
2023-02-18T04:19:14.117Z,1.43
2023-02-18T04:21:42.753Z,1.47
2023-02-18T04:24:11.376Z,1.60
2023-02-18T04:26:39.917Z,1.47
2023-02-18T04:29:08.905Z,1.30
2023-02-18T04:31:38.981Z,1.73
2023-02-18T04:34:08.135Z,1.33
2023-02-18T04:36:36.679Z,1.80
2023-02-18T04:39:07.274Z,1.60
2023-02-18T04:41:35.983Z,1.67
2023-02-18T04:44:04.656Z,1.70
2023-02-18T04:46:34.067Z,1.20
2023-02-18T04:49:04.341Z,1.33
2023-02-18T04:51:33.119Z,1.60
2023-02-18T04:54:01.793Z,1.80
2023-02-18T04:56:30.421Z,1.70
2023-02-18T04:58:59.052Z,1.80
2023-02-18T05:01:27.855Z,1.73
2023-02-18T05:03:56.550Z,1.53
2023-02-18T05:06:26.619Z,2.20
2023-02-18T05:08:55.221Z,2.00
2023-02-18T05:11:23.769Z,1.37
2023-02-18T05:13:52.409Z,1.73
2023-02-18T05:16:21.032Z,1.30
2023-02-18T05:18:49.606Z,1.70
2023-02-18T05:21:18.239Z,1.90
2023-02-18T05:23:48.285Z,1.87
2023-02-18T05:26:16.882Z,1.97
2023-02-18T05:28:45.570Z,1.90
2023-02-18T05:31:14.357Z,1.57
2023-02-18T05:33:43.132Z,1.73
2023-02-18T05:36:11.724Z,1.80
2023-02-18T05:38:40.448Z,1.53
2023-02-18T05:41:10.519Z,1.90
2023-02-18T05:43:53.027Z,1.80
2023-02-18T05:46:21.685Z,2.10
2023-02-18T05:48:50.668Z,1.90
2023-02-18T05:51:19.581Z,2.03
2023-02-18T05:53:48.317Z,1.87
2023-02-18T05:56:18.250Z,2.20
2023-02-18T05:58:47.189Z,2.30
2023-02-18T06:01:15.778Z,2.50
2023-02-18T06:03:44.277Z,2.80
2023-02-18T06:06:12.893Z,2.50
2023-02-18T06:08:41.478Z,2.27
2023-02-18T06:11:10.048Z,2.20
2023-02-18T06:13:39.933Z,2.20
2023-02-18T06:16:09.141Z,1.97
2023-02-18T06:18:37.912Z,2.57
2023-02-18T06:21:07.131Z,2.30
2023-02-18T06:23:35.692Z,2.30
2023-02-18T06:26:04.621Z,2.57
2023-02-18T06:28:33.383Z,2.27
2023-02-18T06:31:03.446Z,2.50
2023-02-18T06:33:32.121Z,2.60
2023-02-18T06:36:07.298Z,2.50
2023-02-18T06:38:36.862Z,2.83
2023-02-18T06:41:06.328Z,2.77
2023-02-18T06:43:35.324Z,2.43
2023-02-18T06:46:06.234Z,2.87
2023-02-18T06:48:35.514Z,2.70
2023-02-18T06:51:04.434Z,3.40
2023-02-18T06:53:33.014Z,3.00
2023-02-18T06:56:01.550Z,2.80
2023-02-18T06:58:30.147Z,3.30
2023-02-18T07:00:58.932Z,3.07
2023-02-18T07:03:29.084Z,2.90
2023-02-18T07:05:57.902Z,3.40
2023-02-18T07:08:27.117Z,2.60
2023-02-18T07:10:55.878Z,3.27
2023-02-18T07:13:24.560Z,3.30
2023-02-18T07:15:53.115Z,3.50
2023-02-18T07:18:21.730Z,3.60
2023-02-18T07:20:52.298Z,4.20
2023-02-18T07:23:21.637Z,4.37
2023-02-18T07:25:50.358Z,4.17
2023-02-18T07:28:19.033Z,3.77
2023-02-18T07:30:47.540Z,4.60
2023-02-18T07:33:16.139Z,4.67
2023-02-18T07:35:45.006Z,3.90
2023-02-18T07:38:15.039Z,4.97
2023-02-18T07:40:46.914Z,4.37
2023-02-18T07:43:15.525Z,4.30
2023-02-18T07:45:44.238Z,4.70
2023-02-18T07:48:13.722Z,4.37
2023-02-18T07:50:44.589Z,3.70
2023-02-18T07:53:18.558Z,4.33
2023-02-18T07:55:50.255Z,3.90
2023-02-18T07:58:23.480Z,3.70
2023-02-18T08:00:53.556Z,3.30
2023-02-18T08:03:27.879Z,3.80
2023-02-18T08:05:57.497Z,3.87
2023-02-18T08:08:31.039Z,3.40
2023-02-18T08:11:13.396Z,3.83
2023-02-18T08:13:47.210Z,3.30
2023-02-18T08:16:16.684Z,3.83
2023-02-18T08:18:47.923Z,3.53
2023-02-18T08:21:18.537Z,4.90
2023-02-18T08:23:49.292Z,3.30
2023-02-18T08:26:19.292Z,3.30
2023-02-18T08:28:49.100Z,3.70
2023-02-18T08:31:20.998Z,3.60
2023-02-18T08:33:51.140Z,6.40
2023-02-18T08:36:20.770Z,9.00
2023-02-18T08:38:51.111Z,11.07
2023-02-18T08:41:20.383Z,3.20
2023-02-18T08:43:49.911Z,3.20
2023-02-18T08:46:25.201Z,4.60
2023-02-18T08:49:04.413Z,4.43
2023-02-18T08:51:34.098Z,3.60
2023-02-18T08:54:04.396Z,4.33
2023-02-18T08:56:33.606Z,2.50
2023-02-18T08:59:02.333Z,2.40
2023-02-18T09:01:30.964Z,2.50
2023-02-18T09:03:59.747Z,2.73
2023-02-18T09:06:28.516Z,1.93
2023-02-18T09:08:57.553Z,1.97
2023-02-18T09:11:27.542Z,2.10
2023-02-18T09:13:56.483Z,2.20
2023-02-18T09:16:26.288Z,2.33
2023-02-18T09:18:55.454Z,2.00
2023-02-18T09:21:25.016Z,1.90
2023-02-18T09:23:53.922Z,1.60
2023-02-18T09:26:25.178Z,1.83
2023-02-18T09:28:57.497Z,1.53
2023-02-18T09:31:28.406Z,2.17
2023-02-18T09:34:02.290Z,1.53
2023-02-18T09:36:31.736Z,1.90
2023-02-18T09:39:01.702Z,1.60
2023-02-18T09:41:40.700Z,1.77
2023-02-18T09:44:21.133Z,1.60
2023-02-18T09:46:55.295Z,1.50
2023-02-18T09:49:28.906Z,1.67
2023-02-18T09:52:02.146Z,1.60
2023-02-18T09:54:30.881Z,2.10
2023-02-18T09:57:01.011Z,1.73
2023-02-18T09:59:32.808Z,1.70
2023-02-18T10:02:03.350Z,1.60
2023-02-18T10:04:41.846Z,1.47
2023-02-18T10:07:19.529Z,2.00
2023-02-18T10:09:53.220Z,1.93
2023-02-18T10:12:25.280Z,1.63
2023-02-18T10:14:58.712Z,1.80
2023-02-18T10:17:32.420Z,1.57
2023-02-18T10:20:07.826Z,1.60
2023-02-18T10:22:39.708Z,1.60
2023-02-18T10:25:10.036Z,1.63
2023-02-18T10:27:42.265Z,1.93
2023-02-18T10:30:25.815Z,1.80
2023-02-18T10:33:02.257Z,1.87
2023-02-18T10:35:36.717Z,1.63
2023-02-18T10:38:19.029Z,2.00
2023-02-18T10:41:01.997Z,1.73
2023-02-18T10:43:43.192Z,1.50
2023-02-18T10:46:27.558Z,1.50
2023-02-18T10:49:16.162Z,1.80
2023-02-18T10:51:56.114Z,1.40
2023-02-18T10:54:27.439Z,1.70
2023-02-18T10:57:04.740Z,1.70
2023-02-18T10:59:34.571Z,1.90
2023-02-18T11:02:16.992Z,1.37
2023-02-18T11:04:47.799Z,1.70
2023-02-18T11:07:22.242Z,1.90
2023-02-18T11:09:54.894Z,1.73
2023-02-18T11:12:27.102Z,1.70
2023-02-18T11:15:17.513Z,1.60
2023-02-18T11:17:50.123Z,1.57
2023-02-18T11:20:33.508Z,1.30
2023-02-18T11:23:20.240Z,1.53
2023-02-18T11:26:01.403Z,2.20
2023-02-18T11:28:41.609Z,1.70
2023-02-18T11:31:17.874Z,1.80
2023-02-18T11:33:54.480Z,1.70
2023-02-18T11:36:31.306Z,2.33
2023-02-18T11:39:04.479Z,1.50
2023-02-18T11:41:39.787Z,1.93
2023-02-18T11:44:22.117Z,1.60
2023-02-18T11:47:03.952Z,1.60
2023-02-18T11:49:36.337Z,1.70
2023-02-18T11:52:17.966Z,2.03
2023-02-18T11:55:02.902Z,1.90
2023-02-18T11:57:35.163Z,1.77
2023-02-18T12:00:16.249Z,1.60
2023-02-18T12:02:45.140Z,2.00
2023-02-18T12:05:22.088Z,1.90
2023-02-18T12:07:57.366Z,2.00
2023-02-18T12:10:33.857Z,2.60
2023-02-18T12:13:08.736Z,2.50
2023-02-18T12:16:00.495Z,2.07
2023-02-18T12:18:49.387Z,1.60
2023-02-18T12:21:31.635Z,2.50
2023-02-18T12:24:13.713Z,2.17
2023-02-18T12:26:59.538Z,1.30
2023-02-18T12:29:49.846Z,2.13
2023-02-18T12:32:40.582Z,1.40
2023-02-18T12:35:37.792Z,1.40
2023-02-18T12:38:51.444Z,1.80
2023-02-18T12:41:49.942Z,1.80
2023-02-18T12:44:35.409Z,2.03
2023-02-18T12:47:32.277Z,1.80
2023-02-18T12:50:46.698Z,1.97
2023-02-18T12:53:50.215Z,1.70
2023-02-18T12:56:49.012Z,3.47
2023-02-18T12:59:46.836Z,1.80
2023-02-18T13:02:43.569Z,1.93
2023-02-18T13:05:31.672Z,1.30
2023-02-18T13:08:38.176Z,1.87
2023-02-18T13:11:34.432Z,2.27
2023-02-18T13:14:12.478Z,1.60
2023-02-18T13:16:44.972Z,1.80
2023-02-18T13:19:24.087Z,1.73
2023-02-18T13:21:58.621Z,2.40
2023-02-18T13:24:34.873Z,1.90
2023-02-18T13:27:17.773Z,1.90
2023-02-18T13:29:57.631Z,1.87
2023-02-18T13:32:37.300Z,1.40
2023-02-18T13:35:22.513Z,2.00
2023-02-18T13:38:13.814Z,1.57
2023-02-18T13:40:43.833Z,1.90
2023-02-18T13:43:32.213Z,1.80
2023-02-18T13:46:14.431Z,1.60
2023-02-18T13:48:52.741Z,1.33
2023-02-18T13:51:33.567Z,1.93
2023-02-18T13:54:13.114Z,2.27
2023-02-18T13:56:45.716Z,1.30
2023-02-18T13:59:23.328Z,1.47
2023-02-18T14:01:53.892Z,1.70
2023-02-18T14:04:51.790Z,2.17
2023-02-18T14:07:45.212Z,1.60
2023-02-18T14:10:33.716Z,1.20
2023-02-18T14:13:23.897Z,1.40
2023-02-18T14:16:01.368Z,1.57
2023-02-18T14:19:02.258Z,1.90
2023-02-18T14:21:43.770Z,1.70
2023-02-18T14:24:14.026Z,2.10
2023-02-18T14:26:48.534Z,1.77
2023-02-18T14:29:29.347Z,1.73
2023-02-18T14:32:04.973Z,1.33
2023-02-18T14:35:14.314Z,1.37
2023-02-18T14:38:21.358Z,1.47
2023-02-18T14:41:13.525Z,1.63
2023-02-18T14:44:13.231Z,1.90
2023-02-18T14:46:59.225Z,2.00
2023-02-18T14:49:42.493Z,1.70
2023-02-18T14:52:24.446Z,1.20
2023-02-18T14:54:53.263Z,1.60
2023-02-18T14:57:32.948Z,1.83
2023-02-18T15:00:01.686Z,1.87
2023-02-18T15:02:38.618Z,1.43
2023-02-18T15:05:16.163Z,1.70
2023-02-18T15:07:57.843Z,2.80
2023-02-18T15:10:40.608Z,2.50
2023-02-18T15:13:20.452Z,3.40
2023-02-18T15:15:53.976Z,2.43
2023-02-18T15:18:32.677Z,2.57
2023-02-18T15:21:06.742Z,2.30
2023-02-18T15:23:40.203Z,2.17
2023-02-18T15:26:16.025Z,1.80
2023-02-18T15:29:01.826Z,1.97
2023-02-18T15:31:39.605Z,1.50
2023-02-18T15:34:36.950Z,1.97
2023-02-18T15:37:14.027Z,2.10
2023-02-18T15:39:46.553Z,1.90
2023-02-18T15:42:27.385Z,1.83
2023-02-18T15:44:59.802Z,1.83
2023-02-18T15:47:28.619Z,2.27
2023-02-18T15:50:02.619Z,1.90
2023-02-18T15:52:39.779Z,2.70
2023-02-18T15:55:16.280Z,2.37
2023-02-18T15:57:45.162Z,2.13
2023-02-18T16:00:21.412Z,2.43
2023-02-18T16:03:03.629Z,2.23
2023-02-18T16:05:32.865Z,2.20
2023-02-18T16:08:14.075Z,2.60
2023-02-18T16:10:50.536Z,2.20
2023-02-18T16:13:20.618Z,2.30
2023-02-18T16:15:52.142Z,2.10
2023-02-18T16:18:29.970Z,2.23
2023-02-18T16:21:03.131Z,2.17
2023-02-18T16:23:42.044Z,2.20
2023-02-18T16:26:23.987Z,2.60
2023-02-18T16:28:55.339Z,2.27
2023-02-18T16:31:24.091Z,2.77
2023-02-18T16:33:53.741Z,2.50
2023-02-18T16:36:25.113Z,2.20
2023-02-18T16:38:55.873Z,2.60
2023-02-18T16:41:24.407Z,2.50
2023-02-18T16:43:54.087Z,2.03
2023-02-18T16:46:25.297Z,2.30
2023-02-18T16:48:56.558Z,3.50
2023-02-18T16:51:31.605Z,2.97
2023-02-18T16:54:02.108Z,2.67
2023-02-18T16:56:35.449Z,2.63
2023-02-18T16:59:04.290Z,2.83
2023-02-18T17:01:37.151Z,2.50
2023-02-18T17:04:07.084Z,2.73
2023-02-18T17:06:35.690Z,2.90
2023-02-18T17:09:16.994Z,3.10
2023-02-18T17:11:48.165Z,3.10
2023-02-18T17:14:18.589Z,3.40
2023-02-18T17:16:47.792Z,2.43
2023-02-18T17:19:17.297Z,3.50
2023-02-18T17:21:48.717Z,2.60
2023-02-18T17:24:21.052Z,2.83
2023-02-18T17:26:49.706Z,3.07
2023-02-18T17:29:19.633Z,2.83
2023-02-18T17:31:52.875Z,2.50
2023-02-18T17:34:27.747Z,2.80
2023-02-18T17:36:56.463Z,2.70
2023-02-18T17:39:26.450Z,3.00
2023-02-18T17:41:55.184Z,3.37
2023-02-18T17:44:26.085Z,3.20
2023-02-18T17:46:54.896Z,2.83
2023-02-18T17:49:23.666Z,3.30
2023-02-18T17:51:52.650Z,4.03
2023-02-18T17:54:25.733Z,3.23
2023-02-18T17:56:57.250Z,3.60
2023-02-18T17:59:26.965Z,3.40
2023-02-18T18:01:55.497Z,4.90
2023-02-18T18:04:24.163Z,4.40
2023-02-18T18:06:52.723Z,4.20
2023-02-18T18:09:21.529Z,4.90
2023-02-18T18:11:50.338Z,4.73
2023-02-18T18:14:20.243Z,4.00
2023-02-18T18:16:48.889Z,3.90
2023-02-18T18:19:17.490Z,4.70
2023-02-18T18:21:47.039Z,4.53
2023-02-18T18:24:15.647Z,4.70
2023-02-18T18:26:44.716Z,4.73
2023-02-18T18:29:13.409Z,5.73
2023-02-18T18:31:43.448Z,5.10
2023-02-18T18:34:12.286Z,5.90
2023-02-18T18:36:40.809Z,4.70
2023-02-18T18:39:10.895Z,4.87
2023-02-18T18:41:39.573Z,5.13
2023-02-18T18:44:08.568Z,4.70
2023-02-18T18:46:37.208Z,5.00
2023-02-18T18:49:07.134Z,4.30
2023-02-18T18:51:35.732Z,7.30
2023-02-18T18:54:05.952Z,7.20
2023-02-18T18:56:34.871Z,5.57
2023-02-18T18:59:04.100Z,4.90
2023-02-18T19:01:33.163Z,4.83
2023-02-18T19:04:01.790Z,4.20
2023-02-18T19:06:31.915Z,5.67
2023-02-18T19:09:00.414Z,3.90
2023-02-18T19:11:29.222Z,4.00
2023-02-18T19:13:58.935Z,4.07
2023-02-18T19:16:35.064Z,4.73
2023-02-18T19:19:03.624Z,3.43
2023-02-18T19:21:33.567Z,4.10
2023-02-18T19:24:02.281Z,3.97
2023-02-18T19:26:31.302Z,3.97
2023-02-18T19:28:59.888Z,3.23
2023-02-18T19:31:28.559Z,3.90
2023-02-18T19:33:57.276Z,3.90
2023-02-18T19:36:25.921Z,3.77
2023-02-18T19:38:55.997Z,3.60
2023-02-18T19:41:25.087Z,3.30
2023-02-18T19:43:55.103Z,3.07
2023-02-18T19:46:24.086Z,4.00
2023-02-18T19:48:53.918Z,3.40
2023-02-18T19:51:23.187Z,3.63
2023-02-18T19:53:51.774Z,3.17
2023-02-18T19:56:21.743Z,3.30
2023-02-18T19:58:50.339Z,4.20
2023-02-18T20:01:19.727Z,3.33
2023-02-18T20:03:48.389Z,3.00
2023-02-18T20:06:18.613Z,3.40
2023-02-18T20:08:47.725Z,3.30
2023-02-18T20:11:16.416Z,3.43
2023-02-18T20:13:49.148Z,3.37
2023-02-18T20:16:17.681Z,2.90
2023-02-18T20:18:46.316Z,3.23
2023-02-18T20:21:14.938Z,3.40
2023-02-18T20:23:43.550Z,3.47
2023-02-18T20:26:14.770Z,3.47
2023-02-18T20:28:45.085Z,3.07
2023-02-18T20:31:15.368Z,3.13
2023-02-18T20:33:45.194Z,3.17
2023-02-18T20:36:15.652Z,2.60
2023-02-18T20:38:44.250Z,3.50
2023-02-18T20:41:17.766Z,3.30
2023-02-18T20:43:48.117Z,3.47
2023-02-18T20:46:20.701Z,3.50
2023-02-18T20:48:49.474Z,3.47
2023-02-18T20:51:22.266Z,2.97
2023-02-18T20:53:52.059Z,3.23
2023-02-18T20:56:22.435Z,2.57
2023-02-18T20:58:53.159Z,3.47
2023-02-18T21:01:22.250Z,3.63
2023-02-18T21:03:51.279Z,3.23
2023-02-18T21:06:23.040Z,3.77
2023-02-18T21:08:54.896Z,3.47
2023-02-18T21:11:26.231Z,4.00
2023-02-18T21:13:58.344Z,3.57
2023-02-18T21:16:29.622Z,4.10
2023-02-18T21:18:58.274Z,3.70
2023-02-18T21:21:27.997Z,3.70
2023-02-18T21:23:56.766Z,2.80
2023-02-18T21:26:27.667Z,3.37
2023-02-18T21:29:00.909Z,3.27
2023-02-18T21:31:32.824Z,3.23
2023-02-18T21:34:01.914Z,3.83
2023-02-18T21:36:35.038Z,3.30
2023-02-18T21:39:06.875Z,4.03
2023-02-18T21:41:40.221Z,3.10
2023-02-18T21:44:10.983Z,3.07
2023-02-18T21:46:41.097Z,3.80
2023-02-18T21:49:12.548Z,4.23
2023-02-18T21:52:01.887Z,3.60
2023-02-18T21:54:33.692Z,4.50
2023-02-18T21:57:05.337Z,4.37
2023-02-18T21:59:37.568Z,5.43
2023-02-18T22:02:09.933Z,5.30
2023-02-18T22:04:39.292Z,4.97
2023-02-18T22:07:08.918Z,5.07
2023-02-18T22:09:38.253Z,4.90
2023-02-18T22:12:07.956Z,5.20
2023-02-18T22:14:38.250Z,4.87
2023-02-18T22:17:07.919Z,5.30
2023-02-18T22:19:37.476Z,4.60
2023-02-18T22:22:06.677Z,4.43
2023-02-18T22:24:35.733Z,5.50
2023-02-18T22:27:04.557Z,5.00
2023-02-18T22:29:33.907Z,5.10
2023-02-18T22:32:04.697Z,4.50
2023-02-18T22:34:33.555Z,4.40
2023-02-18T22:37:02.146Z,3.83
2023-02-18T22:39:30.842Z,4.47
2023-02-18T22:41:59.657Z,5.33
2023-02-18T22:44:28.340Z,4.30
2023-02-18T22:46:58.376Z,4.43
2023-02-18T22:49:28.516Z,4.70
2023-02-18T22:51:57.156Z,4.80
2023-02-18T22:54:25.948Z,5.10
2023-02-18T22:56:55.122Z,5.90
2023-02-18T22:59:24.299Z,5.30
2023-02-18T23:01:53.552Z,5.87
2023-02-18T23:04:22.597Z,4.60
2023-02-18T23:06:52.999Z,4.17
2023-02-18T23:09:25.955Z,4.80
2023-02-18T23:11:58.535Z,5.20
2023-02-18T23:14:29.789Z,4.73
2023-02-18T23:17:18.085Z,4.47
2023-02-18T23:19:50.108Z,4.70
2023-02-18T23:22:28.266Z,4.90
2023-02-18T23:24:57.344Z,4.83
2023-02-18T23:27:26.004Z,4.10
2023-02-18T23:29:55.251Z,4.20
2023-02-18T23:32:24.166Z,4.10
2023-02-18T23:34:53.012Z,4.50
2023-02-18T23:37:44.153Z,3.93
2023-02-18T23:40:13.792Z,3.93
2023-02-18T23:42:42.525Z,4.30
2023-02-18T23:45:11.179Z,3.30
2023-02-18T23:47:39.759Z,3.83
2023-02-18T23:50:08.794Z,3.67
2023-02-18T23:52:38.715Z,3.60
2023-02-18T23:55:08.001Z,3.30
2023-02-18T23:57:37.410Z,3.63
